createdAt,value
2022-08-08T00:02:44.708Z,101123.69
2022-08-08T00:07:48.108Z,101118.00
2022-08-08T00:12:56.700Z,101119.69
2022-08-08T00:18:03.387Z,101130.63
2022-08-08T00:23:02.550Z,101135.16
2022-08-08T00:28:07.926Z,101136.03
2022-08-08T00:34:17.253Z,101141.81
2022-08-08T00:38:51.770Z,101138.91
2022-08-08T00:44:13.260Z,101129.75
2022-08-08T00:49:32.336Z,101146.44
2022-08-08T00:54:48.599Z,101146.47
2022-08-08T01:00:06.541Z,101153.28
2022-08-08T01:05:42.141Z,101154.72
2022-08-08T01:10:57.704Z,101158.06
2022-08-08T01:16:27.929Z,101145.91
2022-08-08T01:22:12.181Z,101158.44
2022-08-08T01:27:10.875Z,101140.72
2022-08-08T01:32:36.149Z,101152.50
2022-08-08T01:38:05.946Z,101143.16
2022-08-08T01:43:34.510Z,101145.47
2022-08-08T01:48:51.254Z,101149.09
2022-08-08T01:55:16.096Z,101154.75
2022-08-08T01:59:21.997Z,101157.59
2022-08-08T02:04:23.944Z,101152.78
2022-08-08T02:10:02.190Z,101153.81
2022-08-08T02:14:58.847Z,101160.75
2022-08-08T02:20:09.374Z,101170.63
2022-08-08T02:25:18.032Z,101169.06
2022-08-08T02:30:21.256Z,101174.81
2022-08-08T02:36:04.188Z,101187.06
2022-08-08T02:42:03.781Z,101190.41
2022-08-08T02:46:47.709Z,101190.84
2022-08-08T02:52:32.900Z,101195.16
2022-08-08T02:57:54.401Z,101202.09
2022-08-08T03:05:00.854Z,101205.63
2022-08-08T03:08:57.693Z,101211.53
2022-08-08T03:15:58.741Z,101213.78
2022-08-08T03:19:26.892Z,101227.47
2022-08-08T03:24:25.842Z,101229.13
2022-08-08T03:29:54.706Z,101232.09
2022-08-08T03:34:47.114Z,101231.41
2022-08-08T03:39:52.021Z,101233.13
2022-08-08T03:44:58.525Z,101234.25
2022-08-08T03:50:01.805Z,101242.22
2022-08-08T03:55:44.951Z,101245.91
2022-08-08T04:00:27.253Z,101245.69
2022-08-08T04:05:35.133Z,101251.81
2022-08-08T04:10:38.350Z,101245.38
2022-08-08T04:15:38.687Z,101251.41
2022-08-08T04:20:37.393Z,101257.66
2022-08-08T04:25:38.373Z,101255.38
2022-08-08T04:30:44.225Z,101255.06
2022-08-08T04:35:51.405Z,101262.84
2022-08-08T04:40:53.608Z,101263.47
2022-08-08T04:45:52.823Z,101269.31
2022-08-08T04:50:50.301Z,101270.25
2022-08-08T04:55:55.635Z,101279.59
2022-08-08T05:00:55.612Z,101281.88
2022-08-08T05:05:53.735Z,101279.25
2022-08-08T05:10:52.351Z,101281.47
2022-08-08T05:16:55.396Z,101292.47
2022-08-08T05:21:08.432Z,101296.66
2022-08-08T05:26:14.211Z,101298.53
2022-08-08T05:32:02.193Z,101296.00
2022-08-08T05:36:31.669Z,101307.47
2022-08-08T05:41:28.789Z,101300.88
2022-08-08T05:46:33.365Z,101301.56
2022-08-08T05:51:48.280Z,101297.31
2022-08-08T05:56:50.939Z,101319.38
2022-08-08T06:01:57.726Z,101327.59
2022-08-08T06:07:00.285Z,101329.06
2022-08-08T06:12:00.655Z,101336.59
2022-08-08T06:17:00.593Z,101337.19
2022-08-08T06:27:46.149Z,101334.94
2022-08-08T06:32:50.165Z,101342.88
2022-08-08T06:37:57.505Z,101341.38
2022-08-08T06:43:02.846Z,101339.94
2022-08-08T06:48:05.757Z,101342.03
2022-08-08T06:53:09.599Z,101340.38
2022-08-08T06:58:13.194Z,101340.66
2022-08-08T07:03:19.493Z,101340.50
2022-08-08T07:08:37.280Z,101341.06
2022-08-08T07:13:39.355Z,101334.16
2022-08-08T07:19:00.318Z,101332.47
2022-08-08T07:24:06.441Z,101326.25
2022-08-08T07:30:01.875Z,101318.88
2022-08-08T07:35:01.131Z,101325.22
2022-08-08T07:40:07.374Z,101321.06
2022-08-08T07:45:06.445Z,101314.19
2022-08-08T07:50:07.363Z,101321.44
2022-08-08T07:55:10.714Z,101332.16
2022-08-08T08:00:16.391Z,101322.81
2022-08-08T08:05:37.825Z,101323.69
2022-08-08T08:10:37.892Z,101321.25
2022-08-08T08:15:37.580Z,101321.34
2022-08-08T08:20:37.472Z,101325.88
2022-08-08T08:25:42.334Z,101321.28
2022-08-08T08:30:46.703Z,101324.38
2022-08-08T08:36:17.701Z,101310.31
2022-08-08T08:41:03.209Z,101320.13
2022-08-08T08:46:08.576Z,101305.25
2022-08-08T08:51:10.457Z,101312.44
2022-08-08T08:56:12.162Z,101309.13
2022-08-08T09:01:14.905Z,101299.88
2022-08-08T09:06:26.088Z,101288.69
2022-08-08T09:11:26.222Z,101291.75
2022-08-08T09:16:32.825Z,101283.16
2022-08-08T09:21:56.520Z,101274.41
2022-08-08T09:26:52.410Z,101269.94
2022-08-08T09:31:56.928Z,101259.66
2022-08-08T09:37:29.084Z,101254.78
2022-08-08T09:42:29.066Z,101250.88
2022-08-08T09:48:04.626Z,101251.00
2022-08-08T09:52:56.388Z,101243.97
2022-08-08T09:58:03.997Z,101234.53
2022-08-08T10:03:03.496Z,101227.53
2022-08-08T10:08:01.566Z,101221.50
2022-08-08T10:13:06.075Z,101221.53
2022-08-08T10:18:17.703Z,101211.84
2022-08-08T10:23:42.454Z,101207.63
2022-08-08T10:28:53.663Z,101207.81
2022-08-08T10:34:18.155Z,101185.34
2022-08-08T10:39:13.971Z,101185.66
2022-08-08T10:44:11.953Z,101181.09
2022-08-08T10:49:26.908Z,101169.81
2022-08-08T10:54:40.742Z,101160.69
2022-08-08T10:59:39.730Z,101148.56
2022-08-08T11:04:44.823Z,101144.03
2022-08-08T11:09:50.166Z,101151.00
2022-08-08T11:14:52.815Z,101148.56
2022-08-08T11:19:52.836Z,101148.88
2022-08-08T11:24:50.283Z,101141.34
2022-08-08T11:30:04.159Z,101139.00
2022-08-08T11:35:23.453Z,101130.69
2022-08-08T11:40:26.885Z,101124.94
2022-08-08T11:45:39.902Z,101119.63
2022-08-08T11:50:52.539Z,101112.50
2022-08-08T11:55:50.175Z,101102.53
2022-08-08T12:00:47.843Z,101112.66
2022-08-08T12:05:46.802Z,101099.63
2022-08-08T12:10:48.300Z,101089.09
2022-08-08T12:15:51.108Z,101093.06
2022-08-08T12:20:48.410Z,101091.13
2022-08-08T12:25:52.603Z,101080.03
2022-08-08T12:30:54.446Z,101080.41
2022-08-08T12:35:53.346Z,101082.41
2022-08-08T12:40:57.096Z,101072.50
2022-08-08T12:46:03.152Z,101077.34
2022-08-08T12:51:02.733Z,101065.72
2022-08-08T12:56:18.423Z,101059.22
2022-08-08T13:01:34.760Z,101055.19
2022-08-08T13:06:37.081Z,101056.34
2022-08-08T13:12:04.163Z,101048.75
2022-08-08T13:16:52.850Z,101049.63
2022-08-08T13:21:58.312Z,101040.94
2022-08-08T13:27:05.612Z,101035.66
2022-08-08T13:32:10.843Z,101033.34
2022-08-08T13:37:10.941Z,101031.75
2022-08-08T13:42:16.950Z,101023.19
2022-08-08T13:47:17.552Z,101007.88
2022-08-08T13:52:23.392Z,101011.88
2022-08-08T13:57:46.413Z,101011.41
2022-08-08T14:02:58.208Z,100998.00
2022-08-08T14:07:59.621Z,101000.44
2022-08-08T14:12:58.523Z,100993.59
2022-08-08T14:17:59.162Z,100991.97
2022-08-08T14:23:21.118Z,100985.66
2022-08-08T14:28:32.695Z,100986.09
2022-08-08T14:33:38.285Z,100982.81
2022-08-08T14:38:52.045Z,100959.81
2022-08-08T14:44:10.751Z,100979.53
2022-08-08T14:49:20.547Z,100971.16
2022-08-08T14:54:29.836Z,100974.66
2022-08-08T14:59:43.707Z,100971.03
2022-08-08T15:04:43.399Z,100965.19
2022-08-08T15:09:43.124Z,100961.63
2022-08-08T15:14:39.760Z,100956.28
2022-08-08T15:19:36.429Z,100954.84
2022-08-08T15:24:33.416Z,100949.88
2022-08-08T15:29:30.744Z,100957.50
2022-08-08T15:34:29.790Z,100952.00
2022-08-08T15:39:31.181Z,100949.19
2022-08-08T15:44:28.385Z,100953.09
2022-08-08T15:49:27.673Z,100948.50
2022-08-08T15:54:38.960Z,100948.69
2022-08-08T16:00:05.750Z,100940.28
2022-08-08T16:04:58.768Z,100945.97
2022-08-08T16:13:21.034Z,100955.22
2022-08-08T16:15:12.666Z,100954.97
2022-08-08T16:20:13.990Z,100962.81
2022-08-08T16:25:10.598Z,100958.09
2022-08-08T16:30:14.325Z,100956.91
2022-08-08T16:35:13.942Z,100975.50
2022-08-08T16:40:17.514Z,100983.31
2022-08-08T16:46:36.083Z,100985.22
2022-08-08T16:50:34.866Z,100979.53
2022-08-08T16:55:54.154Z,100998.81
2022-08-08T17:00:51.668Z,100994.19
2022-08-08T17:05:49.414Z,101011.97
2022-08-08T17:10:53.513Z,101010.78
2022-08-08T17:15:55.679Z,101018.88
2022-08-08T17:20:53.278Z,101019.88
2022-08-08T17:25:53.709Z,101021.44
2022-08-08T17:30:51.125Z,101029.41
2022-08-08T17:36:09.277Z,101033.81
2022-08-08T17:41:10.000Z,101035.19
2022-08-08T17:46:08.210Z,101038.47
2022-08-08T17:51:06.880Z,101039.59
2022-08-08T17:56:08.320Z,101048.38
2022-08-08T18:01:10.973Z,101056.94
2022-08-08T18:06:21.979Z,101066.78
2022-08-08T18:11:25.069Z,101072.84
2022-08-08T18:16:31.107Z,101066.13
2022-08-08T18:22:00.262Z,101078.47
2022-08-08T18:26:54.905Z,101086.63
2022-08-08T18:31:53.720Z,101077.88
2022-08-08T18:36:50.806Z,101098.91
2022-08-08T18:41:58.340Z,101104.91
2022-08-08T18:47:01.250Z,101104.41
2022-08-08T18:51:59.407Z,101105.47
2022-08-08T18:56:59.137Z,101110.41
2022-08-08T19:02:25.733Z,101116.13
2022-08-08T19:07:13.819Z,101126.91
2022-08-08T19:12:13.426Z,101131.59
2022-08-08T19:17:11.117Z,101130.84
2022-08-08T19:22:07.970Z,101146.03
2022-08-08T19:27:07.631Z,101142.38
2022-08-08T19:32:04.769Z,101151.91
2022-08-08T19:37:16.196Z,101153.19
2022-08-08T19:42:14.110Z,101159.97
2022-08-08T19:47:12.383Z,101149.50
2022-08-08T19:52:10.540Z,101162.53
2022-08-08T19:57:08.842Z,101163.22
2022-08-08T20:02:07.708Z,101156.38
2022-08-08T20:08:29.113Z,101162.84
2022-08-08T20:12:32.445Z,101158.78
2022-08-08T20:17:33.156Z,101157.78
2022-08-08T20:22:30.866Z,101151.53
2022-08-08T20:27:43.892Z,101152.03
2022-08-08T20:32:47.384Z,101153.69
2022-08-08T20:37:53.180Z,101144.50
2022-08-08T20:42:50.495Z,101148.53
2022-08-08T20:47:57.862Z,101149.06
2022-08-08T20:52:58.122Z,101148.59
2022-08-08T20:57:58.054Z,101159.97
2022-08-08T21:02:55.600Z,101159.09
2022-08-08T21:08:33.775Z,101169.06
2022-08-08T21:13:09.303Z,101155.53
2022-08-08T21:18:06.611Z,101159.59
2022-08-08T21:23:03.760Z,101157.88
2022-08-08T21:28:15.217Z,101169.09
2022-08-08T21:33:13.977Z,101154.00
2022-08-08T21:38:17.250Z,101177.66
2022-08-08T21:43:14.976Z,101183.47
2022-08-08T21:48:21.948Z,101204.97
2022-08-08T21:54:36.073Z,101206.88
2022-08-08T21:58:44.522Z,101208.91
2022-08-08T22:03:51.522Z,101209.66
2022-08-08T22:08:52.171Z,101204.03
2022-08-08T22:13:51.664Z,101198.25
2022-08-08T22:18:48.703Z,101200.78
2022-08-08T22:23:53.469Z,101204.88
2022-08-08T22:29:13.521Z,101202.44
2022-08-08T22:34:12.313Z,101199.81
2022-08-08T22:39:19.076Z,101195.28
2022-08-08T22:44:16.886Z,101185.81
2022-08-08T22:49:17.838Z,101190.63
2022-08-08T22:54:32.638Z,101190.59
2022-08-08T22:59:36.357Z,101192.75
2022-08-08T23:04:55.698Z,101189.44
2022-08-08T23:09:58.568Z,101180.88
2022-08-08T23:15:10.467Z,101179.56
2022-08-08T23:20:08.513Z,101182.50
2022-08-08T23:25:06.407Z,101175.34
2022-08-08T23:30:04.975Z,101179.75
2022-08-08T23:35:08.303Z,101181.06
2022-08-08T23:40:10.495Z,101185.00
2022-08-08T23:45:07.563Z,101186.53
2022-08-08T23:50:30.673Z,101168.97
2022-08-08T23:55:28.743Z,101182.50
